createdAt,value
2022-12-16T00:02:26.546Z,2.29
2022-12-16T00:04:54.571Z,2.32
2022-12-16T00:07:23.522Z,2.20
2022-12-16T00:09:51.493Z,2.27
2022-12-16T00:12:19.591Z,2.29
2022-12-16T00:14:47.492Z,2.12
2022-12-16T00:17:15.435Z,2.07
2022-12-16T00:19:43.477Z,2.02
2022-12-16T00:22:11.321Z,1.94
2022-12-16T00:24:39.372Z,2.17
2022-12-16T00:27:07.363Z,2.18
2022-12-16T00:29:36.826Z,2.24
2022-12-16T00:32:04.959Z,2.17
2022-12-16T00:34:33.390Z,2.16
2022-12-16T00:37:01.326Z,2.34
2022-12-16T00:39:29.247Z,2.12
2022-12-16T00:41:57.165Z,2.09
2022-12-16T00:44:25.223Z,2.13
2022-12-16T00:46:53.076Z,2.23
2022-12-16T00:49:22.902Z,2.07
2022-12-16T00:51:50.783Z,2.13
2022-12-16T00:54:18.647Z,2.07
2022-12-16T00:56:46.503Z,2.20
2022-12-16T00:59:14.399Z,2.08
2022-12-16T01:01:42.447Z,2.04
2022-12-16T01:04:10.433Z,2.05
2022-12-16T01:06:38.440Z,1.94
2022-12-16T01:09:06.675Z,1.98
2022-12-16T01:11:34.485Z,2.04
2022-12-16T01:14:02.386Z,2.04
2022-12-16T01:16:30.277Z,2.01
2022-12-16T01:19:07.373Z,1.94
2022-12-16T01:21:35.222Z,2.02
2022-12-16T01:24:03.152Z,1.99
2022-12-16T01:26:31.802Z,1.98
2022-12-16T01:28:59.994Z,2.03
2022-12-16T01:31:28.064Z,1.84
2022-12-16T01:33:55.993Z,1.86
2022-12-16T01:36:24.014Z,1.93
2022-12-16T01:38:52.104Z,1.99
2022-12-16T01:41:20.128Z,1.99
2022-12-16T01:43:48.133Z,2.09
2022-12-16T01:46:22.607Z,2.03
2022-12-16T01:48:53.485Z,2.02
2022-12-16T01:51:32.341Z,1.97
2022-12-16T01:54:28.459Z,1.94
2022-12-16T01:57:01.322Z,1.84
2022-12-16T01:59:31.956Z,1.93
2022-12-16T02:02:00.283Z,1.93
2022-12-16T02:04:28.366Z,2.00
2022-12-16T02:06:57.234Z,2.03
2022-12-16T02:09:25.778Z,1.98
2022-12-16T02:12:32.371Z,1.85
2022-12-16T02:15:13.283Z,1.85
2022-12-16T02:18:02.647Z,1.81
2022-12-16T02:20:46.400Z,1.88
2022-12-16T02:23:45.188Z,1.79
2022-12-16T02:26:33.492Z,1.72
2022-12-16T02:29:19.521Z,1.79
2022-12-16T02:31:53.961Z,1.84
2022-12-16T02:34:52.651Z,1.71
2022-12-16T02:37:39.769Z,1.74
2022-12-16T02:40:23.475Z,1.76
2022-12-16T02:42:58.429Z,1.66
2022-12-16T02:45:31.223Z,1.67
2022-12-16T02:47:59.286Z,1.59
2022-12-16T02:50:42.807Z,1.72
2022-12-16T02:53:12.033Z,1.50
2022-12-16T02:56:12.099Z,1.75
2022-12-16T02:58:47.842Z,1.75
2022-12-16T03:02:00.163Z,1.42
2022-12-16T03:04:37.520Z,1.58
2022-12-16T03:07:10.549Z,1.58
2022-12-16T03:09:40.706Z,1.72
2022-12-16T03:12:12.799Z,1.73
2022-12-16T03:14:45.362Z,1.68
2022-12-16T03:17:15.855Z,1.77
2022-12-16T03:19:49.729Z,1.78
2022-12-16T03:22:21.596Z,1.69
2022-12-16T03:24:49.937Z,1.59
2022-12-16T03:27:28.798Z,1.56
2022-12-16T03:30:07.351Z,1.73
2022-12-16T03:32:40.215Z,1.62
2022-12-16T03:35:16.407Z,1.66
2022-12-16T03:37:47.407Z,1.67
2022-12-16T03:40:16.032Z,1.72
2022-12-16T03:42:44.764Z,1.76
2022-12-16T03:45:17.425Z,1.69
2022-12-16T03:47:51.210Z,1.61
2022-12-16T03:50:26.379Z,1.77
2022-12-16T03:52:54.477Z,1.62
2022-12-16T03:55:23.270Z,1.63
2022-12-16T03:57:51.480Z,1.71
2022-12-16T04:00:20.112Z,1.60
2022-12-16T04:02:48.190Z,1.48
2022-12-16T04:05:16.722Z,1.53
2022-12-16T04:07:44.608Z,1.39
2022-12-16T04:10:12.772Z,1.51
2022-12-16T04:12:59.241Z,1.44
2022-12-16T04:15:46.441Z,1.75
2022-12-16T04:18:35.895Z,1.62
2022-12-16T04:21:23.336Z,1.68
2022-12-16T04:24:15.994Z,1.66
2022-12-16T04:27:02.418Z,1.56
2022-12-16T04:29:31.321Z,1.70
2022-12-16T04:32:00.311Z,1.75
2022-12-16T04:34:29.423Z,1.77
2022-12-16T04:37:21.247Z,1.74
2022-12-16T04:40:07.970Z,1.61
2022-12-16T04:42:54.455Z,1.60
2022-12-16T04:45:40.924Z,1.67
2022-12-16T04:48:27.555Z,1.60
2022-12-16T04:51:14.603Z,1.65
2022-12-16T04:54:01.250Z,1.37
2022-12-16T04:56:47.983Z,1.49
2022-12-16T04:59:34.665Z,1.53
2022-12-16T05:02:21.502Z,1.58
2022-12-16T05:05:08.199Z,1.38
2022-12-16T05:07:54.866Z,1.58
2022-12-16T05:10:55.265Z,1.51
2022-12-16T05:13:42.131Z,1.45
2022-12-16T05:16:28.566Z,1.51
2022-12-16T05:19:15.295Z,1.40
2022-12-16T05:22:01.753Z,1.58
2022-12-16T05:24:52.684Z,1.69
2022-12-16T05:27:39.423Z,1.62
2022-12-16T05:30:31.997Z,1.62
2022-12-16T05:33:19.953Z,1.71
2022-12-16T05:36:06.538Z,1.75
2022-12-16T05:38:52.721Z,1.54
2022-12-16T05:41:39.697Z,1.78
2022-12-16T05:44:26.039Z,1.70
2022-12-16T05:47:12.768Z,1.69
2022-12-16T05:49:59.529Z,1.72
2022-12-16T05:52:46.111Z,1.74
2022-12-16T05:55:34.181Z,1.92
2022-12-16T05:58:20.798Z,1.76
2022-12-16T06:01:07.555Z,1.68
2022-12-16T06:03:54.447Z,1.71
2022-12-16T06:06:41.310Z,1.78
2022-12-16T06:09:28.380Z,1.70
2022-12-16T06:12:15.601Z,1.66
2022-12-16T06:15:02.309Z,1.68
2022-12-16T06:17:48.957Z,1.64
2022-12-16T06:20:35.680Z,1.72
2022-12-16T06:23:31.322Z,1.73
2022-12-16T06:26:17.897Z,1.77
2022-12-16T06:29:04.306Z,1.74
2022-12-16T06:31:51.049Z,1.70
2022-12-16T06:34:37.406Z,1.79
2022-12-16T06:37:24.206Z,1.76
2022-12-16T06:40:11.513Z,1.70
2022-12-16T06:43:00.729Z,1.62
2022-12-16T06:45:47.153Z,1.75
2022-12-16T06:48:33.700Z,1.64
2022-12-16T06:51:20.081Z,1.74
2022-12-16T06:54:06.881Z,1.85
2022-12-16T06:56:53.793Z,1.84
2022-12-16T06:59:40.654Z,1.71
2022-12-16T07:02:29.716Z,1.82
2022-12-16T07:05:16.244Z,1.72
2022-12-16T07:08:07.647Z,1.83
2022-12-16T07:10:54.999Z,2.14
2022-12-16T07:13:43.653Z,1.93
2022-12-16T07:16:30.061Z,1.80
2022-12-16T07:19:16.827Z,1.81
2022-12-16T07:22:03.358Z,1.77
2022-12-16T07:24:49.854Z,1.85
2022-12-16T07:27:36.336Z,1.57
2022-12-16T07:30:23.510Z,1.75
2022-12-16T07:33:09.885Z,1.75
2022-12-16T07:35:56.685Z,1.75
2022-12-16T07:38:43.321Z,1.75
2022-12-16T07:41:29.883Z,1.77
2022-12-16T07:44:16.817Z,1.78
2022-12-16T07:47:03.340Z,1.88
2022-12-16T07:49:49.806Z,1.95
2022-12-16T07:52:37.514Z,1.91
2022-12-16T07:55:24.522Z,1.83
2022-12-16T07:58:11.472Z,1.72
2022-12-16T08:00:57.976Z,1.80
2022-12-16T08:03:44.650Z,1.86
2022-12-16T08:06:33.035Z,1.85
2022-12-16T08:09:21.760Z,1.82
2022-12-16T08:12:08.624Z,1.88
2022-12-16T08:14:55.453Z,1.83
2022-12-16T08:17:42.381Z,1.92
2022-12-16T08:20:28.832Z,1.97
2022-12-16T08:23:15.357Z,1.86
2022-12-16T08:26:01.826Z,1.94
2022-12-16T08:28:48.454Z,1.94
2022-12-16T08:31:34.876Z,2.00
2022-12-16T08:34:22.504Z,1.97
2022-12-16T08:37:09.926Z,2.06
2022-12-16T08:40:25.831Z,1.93
2022-12-16T08:43:06.594Z,2.08
2022-12-16T08:45:57.696Z,2.00
2022-12-16T08:48:44.468Z,1.99
2022-12-16T08:51:31.195Z,2.07
2022-12-16T08:54:17.601Z,2.06
2022-12-16T08:57:05.517Z,2.07
2022-12-16T08:59:52.249Z,1.98
2022-12-16T09:02:38.609Z,2.08
2022-12-16T09:05:25.685Z,2.10
2022-12-16T09:08:17.623Z,2.09
2022-12-16T09:11:04.106Z,2.14
2022-12-16T09:13:50.483Z,2.11
2022-12-16T09:16:38.403Z,2.09
2022-12-16T09:19:24.900Z,2.30
2022-12-16T09:22:11.462Z,2.28
2022-12-16T09:24:58.230Z,2.27
2022-12-16T09:27:44.622Z,2.35
2022-12-16T09:30:31.109Z,2.37
2022-12-16T09:33:17.512Z,2.40
2022-12-16T09:36:04.280Z,2.34
2022-12-16T09:38:50.985Z,2.19
2022-12-16T09:41:46.394Z,2.24
2022-12-16T09:44:57.746Z,2.41
2022-12-16T09:47:53.612Z,2.36
2022-12-16T09:50:47.722Z,1.92
2022-12-16T09:53:38.792Z,2.24
2022-12-16T09:56:34.378Z,2.16
2022-12-16T09:59:28.626Z,2.28
2022-12-16T10:02:15.372Z,2.52
2022-12-16T10:05:05.955Z,2.47
2022-12-16T10:07:59.116Z,2.40
2022-12-16T10:11:10.486Z,2.36
2022-12-16T10:14:12.275Z,2.29
2022-12-16T10:17:41.299Z,2.50
2022-12-16T10:20:59.114Z,2.44
2022-12-16T10:24:25.895Z,2.43
2022-12-16T10:27:29.053Z,2.42
2022-12-16T10:30:15.940Z,2.39
2022-12-16T10:33:07.794Z,2.48
2022-12-16T10:36:08.178Z,2.54
2022-12-16T10:39:14.378Z,2.49
2022-12-16T10:42:07.367Z,2.59
2022-12-16T10:45:07.893Z,2.57
2022-12-16T10:47:55.699Z,2.62
2022-12-16T10:50:42.871Z,2.54
2022-12-16T10:53:36.353Z,2.67
2022-12-16T10:56:59.143Z,2.73
2022-12-16T10:59:54.607Z,2.65
2022-12-16T11:02:45.092Z,2.44
2022-12-16T11:05:51.949Z,2.47
2022-12-16T11:08:42.271Z,2.63
2022-12-16T11:11:42.756Z,2.48
2022-12-16T11:14:59.566Z,2.67
2022-12-16T11:17:53.426Z,2.67
2022-12-16T11:20:44.675Z,2.68
2022-12-16T11:23:42.962Z,2.59
2022-12-16T11:26:37.850Z,2.58
2022-12-16T11:29:28.945Z,2.57
2022-12-16T11:32:26.397Z,1.89
2022-12-16T11:35:15.518Z,2.38
2022-12-16T11:38:03.723Z,2.14
2022-12-16T11:40:50.573Z,2.30
2022-12-16T11:43:39.623Z,2.10
2022-12-16T11:46:30.670Z,2.38
2022-12-16T11:49:25.431Z,2.50
2022-12-16T11:56:04.106Z,2.28
2022-12-16T11:59:02.079Z,2.47
2022-12-16T12:02:17.221Z,2.53
2022-12-16T12:05:09.266Z,2.44
2022-12-16T12:08:34.429Z,2.52
2022-12-16T12:11:43.765Z,2.50
2022-12-16T12:14:48.541Z,2.40
2022-12-16T12:17:50.058Z,2.22
2022-12-16T12:20:45.882Z,2.33
2022-12-16T12:23:42.999Z,2.36
2022-12-16T12:26:32.982Z,2.46
2022-12-16T12:29:50.498Z,2.22
2022-12-16T12:32:48.115Z,2.32
2022-12-16T12:35:37.686Z,2.48
2022-12-16T12:38:36.272Z,2.48
2022-12-16T12:41:25.698Z,2.51
2022-12-16T12:44:36.634Z,2.37
2022-12-16T12:47:31.330Z,2.35
2022-12-16T12:50:28.235Z,2.56
2022-12-16T12:53:26.318Z,2.36
2022-12-16T12:56:30.442Z,2.52
2022-12-16T12:59:23.208Z,2.46
2022-12-16T13:02:12.781Z,2.39
2022-12-16T13:05:01.566Z,2.35
2022-12-16T13:07:50.520Z,2.55
2022-12-16T13:10:39.876Z,2.34
2022-12-16T13:13:36.213Z,2.43
2022-12-16T13:16:29.332Z,2.26
2022-12-16T13:19:50.111Z,2.27
2022-12-16T13:22:54.815Z,2.17
2022-12-16T13:26:09.615Z,2.26
2022-12-16T13:28:59.573Z,2.22
2022-12-16T13:31:47.961Z,2.18
2022-12-16T13:34:34.383Z,2.35
2022-12-16T13:37:31.050Z,2.30
2022-12-16T13:40:38.381Z,2.22
2022-12-16T13:44:05.036Z,1.95
2022-12-16T13:47:32.408Z,2.06
2022-12-16T13:50:51.019Z,1.95
2022-12-16T13:53:39.632Z,1.85
2022-12-16T13:56:26.573Z,2.01
2022-12-16T13:59:39.185Z,1.88
2022-12-16T14:02:45.479Z,1.93
2022-12-16T14:05:48.023Z,1.79
2022-12-16T14:08:40.647Z,1.97
2022-12-16T14:11:39.242Z,1.86
2022-12-16T14:14:55.164Z,1.76
2022-12-16T14:17:57.049Z,1.83
2022-12-16T14:20:51.743Z,1.64
2022-12-16T14:24:00.789Z,1.86
2022-12-16T14:26:47.668Z,1.88
2022-12-16T14:29:42.002Z,1.68
2022-12-16T14:32:53.527Z,1.66
2022-12-16T14:35:45.334Z,1.63
2022-12-16T14:38:49.496Z,1.74
2022-12-16T14:41:43.648Z,1.62
2022-12-16T14:44:42.472Z,1.77
2022-12-16T14:47:37.577Z,1.69
2022-12-16T14:50:47.160Z,1.76
2022-12-16T14:53:36.472Z,1.72
2022-12-16T14:56:34.562Z,1.70
2022-12-16T14:59:35.145Z,1.77
2022-12-16T15:02:44.604Z,1.70
2022-12-16T15:05:36.815Z,1.68
2022-12-16T15:08:38.176Z,1.71
2022-12-16T15:11:29.373Z,1.68
2022-12-16T15:14:20.792Z,1.61
2022-12-16T15:17:09.521Z,1.65
2022-12-16T15:20:06.453Z,1.71
2022-12-16T15:22:54.094Z,1.71
2022-12-16T15:25:43.770Z,1.69
2022-12-16T15:28:46.174Z,1.73
2022-12-16T15:31:45.174Z,1.81
2022-12-16T15:34:57.745Z,1.73
2022-12-16T15:37:50.335Z,1.78
2022-12-16T15:40:56.484Z,1.84
2022-12-16T15:43:51.650Z,1.87
2022-12-16T15:46:46.419Z,1.81
2022-12-16T15:49:40.064Z,1.72
2022-12-16T15:52:48.482Z,1.71
2022-12-16T15:55:47.647Z,1.66
2022-12-16T15:58:44.350Z,1.74
2022-12-16T16:01:34.878Z,1.63
2022-12-16T16:04:22.386Z,1.77
2022-12-16T16:07:12.354Z,1.69
2022-12-16T16:09:59.169Z,1.69
2022-12-16T16:12:45.683Z,1.68
2022-12-16T16:15:33.475Z,1.68
2022-12-16T16:18:24.164Z,1.72
2022-12-16T16:21:10.925Z,1.73
2022-12-16T16:23:57.251Z,1.63
2022-12-16T16:26:45.726Z,1.70
2022-12-16T16:29:32.127Z,1.61
2022-12-16T16:32:18.948Z,1.64
2022-12-16T16:35:05.432Z,1.50
2022-12-16T16:37:52.130Z,1.67
2022-12-16T16:40:50.455Z,1.51
2022-12-16T16:43:37.561Z,1.48
2022-12-16T16:46:39.379Z,1.49
2022-12-16T16:49:30.533Z,1.39
2022-12-16T16:52:16.848Z,1.61
2022-12-16T16:55:03.591Z,1.40
2022-12-16T16:57:52.972Z,1.42
2022-12-16T17:00:39.599Z,1.35
2022-12-16T17:03:26.546Z,1.43
2022-12-16T17:06:13.623Z,1.36
2022-12-16T17:09:00.635Z,1.66
2022-12-16T17:11:47.618Z,1.42
2022-12-16T17:14:38.802Z,1.60
2022-12-16T17:17:25.922Z,1.56
2022-12-16T17:20:12.682Z,1.48
2022-12-16T17:22:59.028Z,1.43
2022-12-16T17:25:45.596Z,1.60
2022-12-16T17:28:32.499Z,1.51
2022-12-16T17:31:19.397Z,1.48
2022-12-16T17:34:06.134Z,1.71
2022-12-16T17:36:52.916Z,1.32
2022-12-16T17:39:39.666Z,1.50
2022-12-16T17:42:26.296Z,1.46
2022-12-16T17:45:13.207Z,1.52
2022-12-16T17:48:00.100Z,1.40
2022-12-16T17:50:46.926Z,1.38
2022-12-16T17:53:33.550Z,1.57
2022-12-16T17:56:24.095Z,1.46
2022-12-16T17:59:11.300Z,1.17
2022-12-16T18:01:58.077Z,1.12
2022-12-16T18:04:44.793Z,1.32
2022-12-16T18:07:31.211Z,1.18
2022-12-16T18:10:18.040Z,1.55
2022-12-16T18:13:04.580Z,1.43
2022-12-16T18:15:51.264Z,1.34
2022-12-16T18:18:42.949Z,1.22
2022-12-16T18:21:33.256Z,1.38
2022-12-16T18:24:27.186Z,0.95
2022-12-16T18:27:13.926Z,1.26
2022-12-16T18:30:00.921Z,1.05
2022-12-16T18:32:47.603Z,1.36
2022-12-16T18:35:34.341Z,1.24
2022-12-16T18:38:20.993Z,1.21
2022-12-16T18:41:07.432Z,0.87
2022-12-16T18:43:53.882Z,1.23
2022-12-16T18:46:40.151Z,1.20
2022-12-16T18:49:27.591Z,1.24
2022-12-16T18:52:14.389Z,1.16
2022-12-16T18:55:01.164Z,1.10
2022-12-16T18:57:48.042Z,1.21
2022-12-16T19:00:34.954Z,1.15
2022-12-16T19:03:21.675Z,1.17
2022-12-16T19:06:14.711Z,1.22
2022-12-16T19:09:01.135Z,1.01
2022-12-16T19:11:47.701Z,0.89
2022-12-16T19:14:33.901Z,0.80
2022-12-16T19:17:20.804Z,0.95
2022-12-16T19:20:07.193Z,1.15
2022-12-16T19:22:54.857Z,1.11
2022-12-16T19:25:42.572Z,0.74
2022-12-16T19:28:35.589Z,1.09
2022-12-16T19:31:22.508Z,1.13
2022-12-16T19:34:13.155Z,1.12
2022-12-16T19:37:00.473Z,1.04
2022-12-16T19:39:47.060Z,1.12
2022-12-16T19:42:33.742Z,1.16
2022-12-16T19:45:20.350Z,0.96
2022-12-16T19:48:06.927Z,1.02
2022-12-16T19:50:56.494Z,0.90
2022-12-16T19:53:43.124Z,1.06
2022-12-16T19:56:29.788Z,1.03
2022-12-16T19:59:16.513Z,0.98
2022-12-16T20:02:03.171Z,0.85
2022-12-16T20:04:50.000Z,0.96
2022-12-16T20:07:36.757Z,1.05
2022-12-16T20:10:23.772Z,0.93
2022-12-16T20:13:10.530Z,0.81
2022-12-16T20:15:57.464Z,0.80
2022-12-16T20:18:43.948Z,0.71
2022-12-16T20:21:30.399Z,0.88
2022-12-16T20:24:17.190Z,0.90
2022-12-16T20:27:03.792Z,0.73
2022-12-16T20:29:50.426Z,0.68
2022-12-16T20:32:39.922Z,0.79
2022-12-16T20:35:26.610Z,0.90
2022-12-16T20:38:13.306Z,0.60
2022-12-16T20:41:00.099Z,0.42
2022-12-16T20:43:46.739Z,0.89
2022-12-16T20:46:33.249Z,0.69
2022-12-16T20:49:20.993Z,0.59
2022-12-16T20:52:18.051Z,0.76
2022-12-16T20:55:04.589Z,0.70
2022-12-16T20:57:51.255Z,0.76
2022-12-16T21:00:39.009Z,0.69
2022-12-16T21:03:27.032Z,0.84
2022-12-16T21:06:13.909Z,0.86
2022-12-16T21:09:00.733Z,0.84
2022-12-16T21:11:47.923Z,0.67
2022-12-16T21:14:34.743Z,0.64
2022-12-16T21:17:21.753Z,0.72
2022-12-16T21:20:07.923Z,0.62
2022-12-16T21:22:54.434Z,0.71
2022-12-16T21:25:42.633Z,0.43
2022-12-16T21:28:30.874Z,0.30
2022-12-16T21:31:18.010Z,0.37
2022-12-16T21:34:04.942Z,0.42
2022-12-16T21:36:52.444Z,0.48
2022-12-16T21:39:42.863Z,0.50
2022-12-16T21:42:34.805Z,0.47
2022-12-16T21:45:23.011Z,0.31
2022-12-16T21:48:13.521Z,0.35
2022-12-16T21:50:59.708Z,0.43
2022-12-16T21:53:46.771Z,0.62
2022-12-16T21:56:33.978Z,0.51
2022-12-16T21:59:20.555Z,0.54
2022-12-16T22:02:07.127Z,0.48
2022-12-16T22:04:53.816Z,0.66
2022-12-16T22:07:40.413Z,0.59
2022-12-16T22:10:26.886Z,0.58
2022-12-16T22:13:13.418Z,0.49
2022-12-16T22:16:02.622Z,0.53
2022-12-16T22:18:49.568Z,0.61
2022-12-16T22:21:36.125Z,0.56
2022-12-16T22:24:22.574Z,0.32
2022-12-16T22:27:09.271Z,0.60
2022-12-16T22:29:56.066Z,0.53
2022-12-16T22:32:42.744Z,0.63
2022-12-16T22:35:29.564Z,0.49
2022-12-16T22:38:16.254Z,0.56
2022-12-16T22:41:02.867Z,0.72
2022-12-16T22:43:50.367Z,0.72
2022-12-16T22:46:37.326Z,0.52
2022-12-16T22:49:23.978Z,0.65
2022-12-16T22:52:10.450Z,0.69
2022-12-16T22:54:57.357Z,0.66
2022-12-16T22:57:49.119Z,0.70
2022-12-16T23:00:37.820Z,0.45
2022-12-16T23:03:24.608Z,0.66
2022-12-16T23:06:11.405Z,0.80
2022-12-16T23:08:58.439Z,0.59
2022-12-16T23:11:52.378Z,0.47
2022-12-16T23:14:42.796Z,0.44
2022-12-16T23:17:30.786Z,0.38
2022-12-16T23:20:17.611Z,0.65
2022-12-16T23:23:04.451Z,0.71
2022-12-16T23:25:51.033Z,0.72
2022-12-16T23:28:37.515Z,0.57
2022-12-16T23:31:24.012Z,0.63
2022-12-16T23:34:11.117Z,0.55
2022-12-16T23:36:58.215Z,0.58
2022-12-16T23:39:44.645Z,0.39
2022-12-16T23:42:31.243Z,0.60
2022-12-16T23:45:17.802Z,0.53
2022-12-16T23:48:04.347Z,0.54
2022-12-16T23:50:51.146Z,0.54
2022-12-16T23:53:38.854Z,0.53
2022-12-16T23:56:27.015Z,0.51
2022-12-16T23:59:13.570Z,0.49
